Time;durP1;ratioP1;P1;durP2;ratioP2;P2;SDS_P1;SDS_P2;PMS_P1;PMS_P2;Temp;Humidity;BMP_temperature;BMP_pressure;BME280_temperature;BME280_humidity;BME280_pressure;Samples;Min_cycle;Max_cycle;Signal;HPM_P1;HPM_P2
2022/08/25 00:01:26;;;;;;;4.97;1.50;;;23.90;99.90;;;;;;5032396;28;20405;-69
2022/08/25 00:03:53;;;;;;;5.00;1.40;;;23.90;99.90;;;;;;5031277;28;20430;-70
2022/08/25 00:06:20;;;;;;;2.67;1.38;;;24.00;99.90;;;;;;5031358;28;20032;-70
2022/08/25 00:08:46;;;;;;;2.97;1.40;;;23.90;99.90;;;;;;5031594;28;20089;-70
2022/08/25 00:11:18;;;;;;;4.38;1.40;;;23.90;99.90;;;;;;5031685;28;20013;-70
2022/08/25 00:13:46;;;;;;;4.70;1.38;;;23.90;99.90;;;;;;5031685;28;20036;-70
2022/08/25 00:16:15;;;;;;;4.80;1.30;;;23.90;99.90;;;;;;5031529;28;20036;-71
2022/08/25 00:18:45;;;;;;;3.53;1.50;;;23.90;99.90;;;;;;5031539;28;20486;-70
2022/08/25 00:21:12;;;;;;;4.85;1.80;;;23.90;99.90;;;;;;5031612;28;20033;-70
2022/08/25 00:23:39;;;;;;;3.83;1.38;;;24.00;99.90;;;;;;5031525;28;20128;-70
2022/08/25 00:26:06;;;;;;;4.28;1.23;;;24.00;99.90;;;;;;5031259;28;20032;-70
2022/08/25 00:28:32;;;;;;;4.07;1.42;;;23.90;99.90;;;;;;5030926;28;20026;-70
2022/08/25 00:31:00;;;;;;;4.75;1.38;;;23.90;99.90;;;;;;5031434;28;20021;-70
2022/08/25 00:33:27;;;;;;;3.35;1.40;;;23.90;99.90;;;;;;5031160;28;20112;-70
2022/08/25 00:35:57;;;;;;;5.25;1.80;;;23.90;99.90;;;;;;5030947;28;20045;-70
2022/08/25 00:38:24;;;;;;;7.00;1.58;;;23.90;99.90;;;;;;5031205;28;20079;-70
2022/08/25 00:41:04;;;;;;;;;;;23.90;99.90;;;;;;5031345;28;20120;-70
2022/08/25 00:43:41;;;;;;;3.20;1.35;;;23.80;99.90;;;;;;5030858;28;19932;-70
2022/08/25 00:46:09;;;;;;;3.15;1.33;;;23.80;99.90;;;;;;5029806;28;20033;-69
2022/08/25 00:48:35;;;;;;;4.30;1.58;;;23.80;99.90;;;;;;5030987;28;20454;-70
2022/08/25 00:51:02;;;;;;;;;;;23.80;99.90;;;;;;5031068;28;20076;-70
2022/08/25 00:53:30;;;;;;;7.03;1.70;;;23.80;99.90;;;;;;5031093;28;19975;-71
2022/08/25 00:55:57;;;;;;;3.88;1.30;;;23.70;99.90;;;;;;5030644;28;20100;-70
2022/08/25 00:58:26;;;;;;;8.93;1.52;;;23.70;99.90;;;;;;5030528;28;20223;-70
2022/08/25 01:00:55;;;;;;;4.85;1.60;;;23.70;99.90;;;;;;5030642;28;20036;-70
2022/08/25 01:03:24;;;;;;;3.65;1.50;;;23.70;99.90;;;;;;5029139;28;20033;-70
2022/08/25 01:05:51;;;;;;;4.10;1.45;;;23.70;99.90;;;;;;5030664;28;20473;-70
2022/08/25 01:08:19;;;;;;;4.38;1.45;;;23.80;99.90;;;;;;5030289;28;20025;-69
2022/08/25 01:10:47;;;;;;;4.28;1.50;;;23.70;99.90;;;;;;5030523;28;20095;-70
2022/08/25 01:13:19;;;;;;;6.75;1.90;;;23.70;99.90;;;;;;5029185;28;20037;-70
2022/08/25 01:15:47;;;;;;;3.58;1.50;;;23.70;99.90;;;;;;5029219;28;20061;-71
2022/08/25 01:18:14;;;;;;;4.65;1.45;;;23.70;99.90;;;;;;5029268;28;20355;-70
2022/08/25 01:20:41;;;;;;;6.45;1.83;;;23.70;99.90;;;;;;5030508;28;20037;-69
2022/08/25 01:23:07;;;;;;;6.97;1.70;;;23.70;99.90;;;;;;5030727;28;20022;-70
2022/08/25 01:26:03;;;;;;;6.38;1.77;;;23.70;99.90;;;;;;5030397;28;20389;-71
2022/08/25 01:28:29;;;;;;;7.38;1.70;;;23.70;99.90;;;;;;5030461;28;20066;-70
2022/08/25 01:30:56;;;;;;;6.25;1.67;;;23.70;99.90;;;;;;5030621;28;20061;-71
2022/08/25 01:33:22;;;;;;;;;;;23.70;99.90;;;;;;5031106;28;20051;-70
2022/08/25 01:35:48;;;;;;;4.82;1.60;;;23.60;99.90;;;;;;5030485;28;19928;-70
2022/08/25 01:38:14;;;;;;;6.35;1.60;;;23.60;99.90;;;;;;5030224;28;20132;-70
2022/08/25 01:40:41;;;;;;;3.75;1.42;;;23.70;99.90;;;;;;5030587;28;20033;-70
2022/08/25 01:43:10;;;;;;;4.60;1.50;;;23.70;99.90;;;;;;5030573;28;20026;-70
2022/08/25 01:45:39;;;;;;;4.30;1.60;;;23.60;99.90;;;;;;5032336;28;20390;-70
2022/08/25 01:48:06;;;;;;;4.13;1.45;;;23.70;99.90;;;;;;5034348;28;20018;-70
2022/08/25 01:50:33;;;;;;;4.65;1.50;;;23.70;99.90;;;;;;5032423;28;20057;-70
2022/08/25 01:53:17;;;;;;;3.83;1.67;;;23.70;99.90;;;;;;5032404;28;20221;-70
2022/08/25 01:56:00;;;;;;;4.65;1.33;;;23.60;99.90;;;;;;5034053;28;20040;-72
2022/08/25 01:58:31;;;;;;;3.40;1.52;;;23.60;99.90;;;;;;5033838;28;20021;-70
2022/08/25 02:01:00;;;;;;;5.45;2.00;;;23.60;99.90;;;;;;5033555;28;20034;-70
2022/08/25 02:03:27;;;;;;;3.35;1.45;;;23.60;99.90;;;;;;5033773;28;20411;-70
2022/08/25 02:05:56;;;;;;;5.72;1.40;;;23.60;99.90;;;;;;5031953;28;20026;-70
2022/08/25 02:08:23;;;;;;;8.60;1.88;;;23.60;99.90;;;;;;5033743;28;20101;-70
2022/08/25 02:10:52;;;;;;;5.22;1.58;;;23.50;99.90;;;;;;5033339;28;20034;-69
2022/08/25 02:13:19;;;;;;;4.25;1.35;;;23.50;99.90;;;;;;5033374;28;20165;-70
2022/08/25 02:15:50;;;;;;;3.58;1.77;;;23.50;99.90;;;;;;5033426;28;20025;-69
2022/08/25 02:18:18;;;;;;;5.00;1.65;;;23.40;99.90;;;;;;5033449;28;20026;-69
2022/08/25 02:20:44;;;;;;;3.40;1.63;;;23.40;99.90;;;;;;5033594;28;20434;-69
2022/08/25 02:23:10;;;;;;;4.63;1.73;;;23.40;99.90;;;;;;5033273;28;20125;-69
2022/08/25 02:25:39;;;;;;;5.63;1.90;;;23.50;99.90;;;;;;5031792;28;20034;-70
2022/08/25 02:28:07;;;;;;;7.28;1.92;;;23.40;99.90;;;;;;5033289;28;20417;-69
2022/08/25 02:30:34;;;;;;;4.78;1.90;;;23.50;99.90;;;;;;5032887;28;20064;-69
2022/08/25 02:33:01;;;;;;;4.35;1.70;;;23.50;99.90;;;;;;5032909;28;20505;-69
2022/08/25 02:35:28;;;;;;;4.28;1.50;;;23.40;99.90;;;;;;5033003;28;20533;-69
2022/08/25 02:37:54;;;;;;;4.53;1.70;;;23.60;99.90;;;;;;5032670;28;20102;-70
2022/08/25 02:40:21;;;;;;;4.32;1.48;;;23.60;99.90;;;;;;5032764;28;20048;-71
2022/08/25 02:42:48;;;;;;;4.03;1.67;;;23.60;99.90;;;;;;5032978;28;20471;-69
2022/08/25 02:45:15;;;;;;;4.78;1.67;;;23.50;99.90;;;;;;5032850;28;20108;-69
2022/08/25 02:47:41;;;;;;;4.45;1.75;;;23.40;99.90;;;;;;5032736;28;20044;-69
2022/08/25 02:50:08;;;;;;;5.10;1.80;;;23.40;99.90;;;;;;5031290;28;20076;-69
2022/08/25 02:52:35;;;;;;;3.55;1.58;;;23.40;99.90;;;;;;5033242;28;20045;-69
2022/08/25 02:55:04;;;;;;;3.92;1.70;;;23.30;99.90;;;;;;5033747;28;20032;-70
2022/08/25 02:57:30;;;;;;;4.00;1.60;;;23.40;99.90;;;;;;5032411;28;20041;-69
2022/08/25 02:59:57;;;;;;;3.97;1.65;;;23.50;99.90;;;;;;5033349;28;20040;-69
2022/08/25 03:02:25;;;;;;;5.05;1.70;;;23.40;99.90;;;;;;5033178;28;20033;-69
2022/08/25 03:04:52;;;;;;;5.22;1.85;;;23.30;99.90;;;;;;5033040;28;20439;-69
2022/08/25 03:07:19;;;;;;;8.95;1.92;;;23.30;99.90;;;;;;5031565;28;20450;-69
2022/08/25 03:09:45;;;;;;;4.68;1.65;;;23.30;99.90;;;;;;5032923;28;20032;-69
2022/08/25 03:12:12;;;;;;;3.00;1.70;;;23.30;99.90;;;;;;5033327;28;20378;-70
2022/08/25 03:14:39;;;;;;;4.55;1.60;;;23.40;99.90;;;;;;5031713;28;20029;-69
2022/08/25 03:17:07;;;;;;;6.90;1.90;;;23.50;99.90;;;;;;5032980;28;20088;-70
2022/08/25 03:19:33;;;;;;;6.00;1.80;;;23.40;99.90;;;;;;5033006;28;20497;-69
2022/08/25 03:21:59;;;;;;;6.15;1.70;;;23.30;99.90;;;;;;5033480;28;20096;-69
2022/08/25 03:24:26;;;;;;;5.18;1.77;;;23.30;99.90;;;;;;5033620;28;20455;-68
2022/08/25 03:26:52;;;;;;;4.68;1.65;;;23.20;99.90;;;;;;5033030;28;20025;-68
2022/08/25 03:29:21;;;;;;;4.30;1.88;;;23.30;99.90;;;;;;5032731;28;20049;-69
2022/08/25 03:31:47;;;;;;;4.47;1.63;;;23.40;99.90;;;;;;5032844;28;20378;-69
2022/08/25 03:34:18;;;;;;;4.00;1.63;;;23.50;99.90;;;;;;5031614;28;20175;-69
2022/08/25 03:36:46;;;;;;;4.80;1.80;;;23.40;99.90;;;;;;5031549;28;20458;-69
2022/08/25 03:39:13;;;;;;;4.78;2.10;;;23.40;99.90;;;;;;5032955;28;20041;-69
2022/08/25 03:41:39;;;;;;;4.72;1.58;;;23.30;99.90;;;;;;5032721;28;20032;-69
2022/08/25 03:44:08;;;;;;;5.30;1.70;;;23.20;99.90;;;;;;5032728;28;20029;-69
2022/08/25 03:46:40;;;;;;;5.30;1.88;;;23.10;99.90;;;;;;5032485;28;20036;-69
2022/08/25 03:49:09;;;;;;;5.28;1.98;;;23.00;99.90;;;;;;5033018;28;20022;-69
2022/08/25 03:51:40;;;;;;;3.45;1.70;;;22.90;99.90;;;;;;5032631;28;20021;-70
2022/08/25 03:54:08;;;;;;;3.90;1.77;;;22.90;99.90;;;;;;5031250;28;20021;-69
2022/08/25 03:56:34;;;;;;;6.65;1.83;;;22.90;99.90;;;;;;5032590;28;20052;-68
2022/08/25 03:59:00;;;;;;;5.15;2.35;;;22.80;99.90;;;;;;5032444;28;20452;-69
2022/08/25 04:01:26;;;;;;;6.40;1.80;;;22.80;99.90;;;;;;5032873;28;20028;-70
2022/08/25 04:03:53;;;;;;;5.15;2.00;;;22.80;99.90;;;;;;5032955;28;20032;-69
2022/08/25 04:06:19;;;;;;;3.60;1.80;;;22.80;99.90;;;;;;5032679;28;20021;-69
2022/08/25 04:08:46;;;;;;;3.28;1.80;;;22.70;99.90;;;;;;5032478;28;20378;-68
2022/08/25 04:11:19;;;;;;;6.50;2.10;;;22.70;99.90;;;;;;5032589;28;20033;-70
2022/08/25 04:13:46;;;;;;;7.47;2.25;;;22.70;99.90;;;;;;5032841;28;20379;-70
2022/08/25 04:16:23;;;;;;;3.25;1.80;;;22.70;99.90;;;;;;5032336;28;20108;-70
2022/08/25 04:18:50;;;;;;;9.25;2.00;;;22.70;99.90;;;;;;5033750;28;20021;-71
2022/08/25 04:21:17;;;;;;;7.63;2.10;;;22.80;99.90;;;;;;5033450;28;20462;-71
2022/08/25 04:23:46;;;;;;;7.10;2.10;;;22.70;99.90;;;;;;5033979;28;20036;-71
2022/08/25 04:26:18;;;;;;;6.88;2.15;;;22.70;99.90;;;;;;5033752;28;20116;-70
2022/08/25 04:28:45;;;;;;;8.23;2.10;;;22.70;99.90;;;;;;5033155;28;20049;-69
2022/08/25 04:31:13;;;;;;;5.80;1.80;;;22.60;99.90;;;;;;5033349;28;20036;-69
2022/08/25 04:33:40;;;;;;;6.45;2.10;;;22.60;99.90;;;;;;5033078;28;20073;-71
2022/08/25 04:36:10;;;;;;;6.15;2.05;;;22.60;99.90;;;;;;5033589;28;20033;-70
2022/08/25 04:38:37;;;;;;;5.00;2.20;;;22.60;99.90;;;;;;5033461;28;20044;-69
2022/08/25 04:41:05;;;;;;;5.22;2.10;;;22.70;99.90;;;;;;5033331;28;20096;-70
2022/08/25 04:43:34;;;;;;;10.40;2.95;;;22.60;99.90;;;;;;5033707;28;20026;-70
2022/08/25 04:46:09;;;;;;;6.30;1.90;;;22.70;99.90;;;;;;5033329;28;20021;-69
2022/08/25 04:48:38;;;;;;;3.47;1.90;;;22.70;99.90;;;;;;5033463;28;20426;-69
2022/08/25 04:51:13;;;;;;;5.72;2.10;;;22.70;99.90;;;;;;5033402;28;20760;-69
2022/08/25 04:53:40;;;;;;;5.30;2.10;;;22.70;99.90;;;;;;5032634;28;20067;-69
2022/08/25 04:56:13;;;;;;;4.97;2.28;;;22.80;99.90;;;;;;5031902;28;20370;-70
2022/08/25 04:58:40;;;;;;;4.75;1.95;;;22.80;99.90;;;;;;5032974;28;20370;-70
2022/08/25 05:01:14;;;;;;;3.83;2.00;;;22.80;99.90;;;;;;5032782;28;20025;-69
2022/08/25 05:03:40;;;;;;;5.60;1.88;;;22.80;99.90;;;;;;5032444;28;20017;-69
2022/08/25 05:06:07;;;;;;;8.05;2.30;;;22.90;99.90;;;;;;5032674;28;20037;-69
2022/08/25 05:08:33;;;;;;;6.43;2.00;;;22.90;99.90;;;;;;5032409;28;20021;-69
2022/08/25 05:11:13;;;;;;;5.63;2.00;;;23.00;99.90;;;;;;5032627;28;20033;-70
2022/08/25 05:13:40;;;;;;;6.30;2.15;;;23.00;99.90;;;;;;5032333;28;20032;-69
2022/08/25 05:16:06;;;;;;;4.97;2.30;;;23.10;99.90;;;;;;5031944;28;20044;-69
2022/08/25 05:18:34;;;;;;;7.13;2.20;;;23.20;99.90;;;;;;5032612;28;20029;-69
2022/08/25 05:21:10;;;;;;;6.85;2.08;;;23.40;99.90;;;;;;5033948;28;20036;-70
2022/08/25 05:23:36;;;;;;;6.22;1.85;;;24.20;99.90;;;;;;5036480;28;20068;-70
2022/08/25 05:26:05;;;;;;;;;;;25.50;99.90;;;;;;5036757;28;20045;-71
2022/08/25 05:28:31;;;;;;;4.47;1.50;;;27.10;99.90;;;;;;5036376;28;20399;-70
2022/08/25 05:30:59;;;;;;;4.22;1.52;;;28.90;99.90;;;;;;5036531;28;20022;-71
2022/08/25 05:33:26;;;;;;;4.80;1.48;;;29.50;99.90;;;;;;5036188;28;20033;-71
2022/08/25 05:35:52;;;;;;;6.63;1.23;;;30.90;99.90;;;;;;5036139;28;20320;-71
2022/08/25 05:38:18;;;;;;;5.50;1.70;;;31.60;99.90;;;;;;5036127;28;20030;-70
2022/08/25 05:40:44;;;;;;;4.25;1.20;;;32.70;99.90;;;;;;5035920;28;20029;-70
2022/08/25 05:43:13;;;;;;;4.68;1.25;;;33.60;99.90;;;;;;5036021;28;20053;-71
2022/08/25 05:45:40;;;;;;;4.70;1.30;;;34.00;99.90;;;;;;5035365;28;20025;-69
2022/08/25 05:48:06;;;;;;;3.60;1.20;;;34.50;99.90;;;;;;5035844;28;20071;-70
2022/08/25 05:50:32;;;;;;;4.72;1.27;;;34.70;99.90;;;;;;5035699;28;20036;-70
2022/08/25 05:52:58;;;;;;;5.90;1.40;;;35.10;99.90;;;;;;5035798;28;20021;-71
2022/08/25 05:55:24;;;;;;;3.42;1.10;;;35.20;99.80;;;;;;5035468;28;20100;-70
2022/08/25 05:57:50;;;;;;;4.95;1.38;;;35.50;99.70;;;;;;5035241;28;20026;-70
2022/08/25 06:00:17;;;;;;;4.93;1.20;;;35.90;98.70;;;;;;5035086;28;20392;-71
2022/08/25 06:02:45;;;;;;;3.70;1.20;;;36.40;98.70;;;;;;5035443;28;20049;-70
2022/08/25 06:05:17;;;;;;;3.83;1.10;;;37.20;97.50;;;;;;5035365;28;20026;-70
2022/08/25 06:07:45;;;;;;;4.20;1.20;;;38.50;96.50;;;;;;5035471;28;20018;-70
2022/08/25 06:10:12;;;;;;;6.10;1.20;;;37.50;95.70;;;;;;5035287;28;20390;-70
2022/08/25 06:12:43;;;;;;;3.70;1.05;;;36.30;96.90;;;;;;5035356;28;20057;-71
2022/08/25 06:15:11;;;;;;;5.15;1.30;;;36.70;97.30;;;;;;5035343;28;20040;-70
2022/08/25 06:17:41;;;;;;;3.65;1.05;;;37.40;96.40;;;;;;5036300;28;20535;-70
2022/08/25 06:20:17;;;;;;;5.30;1.00;;;38.10;95.60;;;;;;5036346;28;20034;-70
2022/08/25 06:22:44;;;;;;;3.42;0.90;;;39.10;94.50;;;;;;5036260;28;20022;-71
2022/08/25 06:25:12;;;;;;;4.05;0.93;;;38.70;93.60;;;;;;5036020;28;20026;-71
2022/08/25 06:27:39;;;;;;;4.63;1.02;;;38.40;94.10;;;;;;5035762;28;20101;-70
2022/08/25 06:30:08;;;;;;;3.67;1.02;;;39.30;94.00;;;;;;5035133;28;20046;-70
2022/08/25 06:32:36;;;;;;;4.25;1.00;;;39.80;93.10;;;;;;5034928;28;20036;-71
2022/08/25 06:35:05;;;;;;;4.75;1.20;;;40.30;92.70;;;;;;5035228;28;20073;-71
2022/08/25 06:37:31;;;;;;;2.83;1.00;;;41.20;91.80;;;;;;5035396;28;20087;-70
2022/08/25 06:39:57;;;;;;;5.50;0.90;;;40.40;91.20;;;;;;5033762;28;20060;-70
2022/08/25 06:42:23;;;;;;;3.70;1.00;;;39.30;92.60;;;;;;5035004;28;20025;-70
2022/08/25 06:44:49;;;;;;;5.53;0.90;;;38.90;92.70;;;;;;5035240;28;20069;-70
2022/08/25 06:47:16;;;;;;;3.75;1.05;;;38.30;93.10;;;;;;5035114;28;20056;-70
2022/08/25 06:49:42;;;;;;;4.18;1.00;;;38.60;93.00;;;;;;5035473;28;20025;-70
2022/08/25 06:52:09;;;;;;;4.03;1.02;;;39.40;92.50;;;;;;5035185;28;20033;-71
2022/08/25 06:54:35;;;;;;;2.92;0.93;;;39.90;92.20;;;;;;5034781;28;20104;-70
2022/08/25 06:57:02;;;;;;;5.85;1.20;;;39.60;91.40;;;;;;5035159;28;20052;-70
2022/08/25 06:59:28;;;;;;;6.15;1.33;;;38.40;92.50;;;;;;5034961;28;20044;-70
2022/08/25 07:01:54;;;;;;;4.28;1.10;;;36.00;94.50;;;;;;5034998;28;20025;-70
2022/08/25 07:04:20;;;;;;;6.55;1.17;;;35.70;95.50;;;;;;5034964;28;20026;-70
2022/08/25 07:06:46;;;;;;;5.20;1.23;;;34.80;96.40;;;;;;5033260;28;20474;-70
2022/08/25 07:09:13;;;;;;;2.88;1.00;;;36.30;95.80;;;;;;5033128;28;20030;-70
2022/08/25 07:11:42;;;;;;;3.72;1.02;;;38.30;94.10;;;;;;5034604;28;20414;-70
2022/08/25 07:14:11;;;;;;;2.53;0.93;;;38.60;92.50;;;;;;5033137;28;20532;-71
2022/08/25 07:16:38;;;;;;;4.35;0.95;;;39.00;92.40;;;;;;5034900;28;20454;-70
2022/08/25 07:19:05;;;;;;;2.65;0.80;;;40.20;91.70;;;;;;5034191;28;20490;-70
2022/08/25 07:21:34;;;;;;;6.45;1.00;;;39.30;91.10;;;;;;5034316;28;20474;-70
2022/08/25 07:24:03;;;;;;;4.78;1.00;;;38.60;92.20;;;;;;5034003;28;20026;-70
2022/08/25 07:26:33;;;;;;;4.75;1.00;;;37.20;92.80;;;;;;5034245;28;20034;-69
2022/08/25 07:29:00;;;;;;;5.38;1.02;;;35.60;93.90;;;;;;5034017;28;20034;-70
2022/08/25 07:31:27;;;;;;;3.67;1.17;;;34.60;95.30;;;;;;5033771;28;20061;-70
2022/08/25 07:36:38;;;;;;;5.72;1.10;;;33.30;97.10;;;;;;5033890;28;20036;-70
2022/08/25 07:39:04;;;;;;;4.75;1.30;;;33.10;97.70;;;;;;5034031;28;20108;-70
2022/08/25 07:41:38;;;;;;;5.38;1.35;;;33.40;97.20;;;;;;5033934;28;20108;-70
2022/08/25 07:44:06;;;;;;;4.20;1.20;;;32.80;97.50;;;;;;5033235;28;20049;-70
2022/08/25 07:46:32;;;;;;;5.65;1.25;;;32.00;98.40;;;;;;5034281;28;20343;-71
2022/08/25 07:48:59;;;;;;;8.02;1.30;;;31.60;98.60;;;;;;5033180;28;20148;-70
2022/08/25 07:51:25;;;;;;;;;;;31.70;98.80;;;;;;5033451;28;20071;-69
2022/08/25 07:53:51;;;;;;;4.38;1.10;;;31.50;99.00;;;;;;5031824;28;19905;-71
2022/08/25 07:56:17;;;;;;;;;;;31.70;99.10;;;;;;5033338;28;20022;-70
2022/08/25 07:58:46;;;;;;;4.38;1.30;;;31.70;98.90;;;;;;5033333;28;19909;-71
2022/08/25 08:01:18;;;;;;;6.38;1.30;;;31.40;99.40;;;;;;5032186;28;20044;-70
2022/08/25 08:03:44;;;;;;;3.47;1.10;;;31.70;99.30;;;;;;5031725;28;20056;-70
2022/08/25 08:06:13;;;;;;;3.67;1.10;;;31.60;99.00;;;;;;5031331;28;20029;-71
2022/08/25 08:08:43;;;;;;;4.60;1.10;;;31.20;99.30;;;;;;5031361;28;20026;-70
2022/08/25 08:11:26;;;;;;;2.90;1.00;;;31.20;98.80;;;;;;5032214;28;20030;-70
2022/08/25 08:13:55;;;;;;;4.70;1.40;;;31.10;98.20;;;;;;5032958;28;20388;-70
2022/08/25 08:16:25;;;;;;;3.03;1.10;;;31.20;98.40;;;;;;5032610;28;20041;-70
2022/08/25 08:18:51;;;;;;;3.33;0.93;;;31.30;97.50;;;;;;5032681;28;20168;-70
2022/08/25 08:21:21;;;;;;;;;;;31.20;97.30;;;;;;5033266;28;20029;-70
2022/08/25 08:23:49;;;;;;;4.60;1.10;;;31.40;97.60;;;;;;5033228;28;19905;-70
2022/08/25 08:26:17;;;;;;;4.65;1.30;;;31.60;96.70;;;;;;5032652;28;20033;-71
2022/08/25 08:28:44;;;;;;;2.92;1.00;;;31.80;96.90;;;;;;5031150;28;20124;-70
2022/08/25 08:31:10;;;;;;;6.28;1.40;;;31.80;96.70;;;;;;5032913;28;20433;-70
2022/08/25 08:33:36;;;;;;;4.30;1.13;;;31.80;96.60;;;;;;5032939;28;20382;-70
2022/08/25 08:36:10;;;;;;;3.25;1.20;;;32.00;96.40;;;;;;5032731;28;20030;-70
2022/08/25 08:38:38;;;;;;;3.88;1.40;;;32.30;96.30;;;;;;5031752;28;20095;-70
2022/08/25 08:44:44;;;;;;;4.07;1.10;;;32.80;96.10;;;;;;5032641;28;20083;-69
2022/08/25 08:47:19;;;;;;;4.05;1.10;;;32.60;96.30;;;;;;5032765;28;20029;-70
2022/08/25 08:50:14;;;;;;;4.20;1.10;;;31.50;96.60;;;;;;5032764;28;20025;-69
2022/08/25 08:52:55;;;;;;;4.38;1.20;;;31.50;98.10;;;;;;5032158;28;20029;-70
2022/08/25 08:55:30;;;;;;;3.75;1.20;;;31.80;99.10;;;;;;5030595;28;20132;-70
2022/08/25 08:58:00;;;;;;;2.97;1.10;;;32.00;99.10;;;;;;5031163;28;20021;-69
2022/08/25 09:00:27;;;;;;;7.18;1.50;;;31.90;99.60;;;;;;5031592;28;20073;-71
2022/08/25 09:03:08;;;;;;;7.20;1.63;;;31.70;99.50;;;;;;5030282;28;20044;-70
2022/08/25 09:05:46;;;;;;;7.07;1.20;;;32.00;99.70;;;;;;5031842;28;20029;-70
2022/08/25 09:08:14;;;;;;;4.97;1.33;;;32.20;99.30;;;;;;5032192;28;20084;-70
2022/08/25 09:11:12;;;;;;;4.78;1.40;;;32.20;99.40;;;;;;5031765;28;20073;-70
2022/08/25 09:13:53;;;;;;;5.88;1.55;;;32.20;99.40;;;;;;5030937;28;20041;-72
2022/08/25 09:16:55;;;;;;;4.07;1.60;;;32.40;99.40;;;;;;5032044;28;20037;-71
2022/08/25 09:19:30;;;;;;;5.70;1.55;;;32.70;99.20;;;;;;5032216;28;20110;-71
2022/08/25 09:22:34;;;;;;;4.13;1.25;;;33.10;98.60;;;;;;5032334;28;20026;-71
2022/08/25 09:25:10;;;;;;;3.78;1.20;;;33.20;98.40;;;;;;5031803;28;20034;-71
2022/08/25 09:28:10;;;;;;;4.82;1.30;;;33.00;98.10;;;;;;5032040;28;20072;-70
2022/08/25 09:30:56;;;;;;;6.28;1.73;;;33.00;98.30;;;;;;5031588;28;20092;-70
2022/08/25 09:33:24;;;;;;;2.55;1.30;;;33.00;98.30;;;;;;5032353;28;20022;-69
2022/08/25 09:35:52;;;;;;;4.82;1.52;;;33.00;98.50;;;;;;5031686;28;20029;-70
2022/08/25 09:38:18;;;;;;;4.97;1.27;;;33.00;98.60;;;;;;5031630;28;20026;-70
2022/08/25 09:40:49;;;;;;;4.65;2.00;;;32.80;98.30;;;;;;5030333;28;20037;-71
2022/08/25 09:43:30;;;;;;;6.18;1.45;;;33.00;98.40;;;;;;5032110;28;20084;-70
2022/08/25 09:46:13;;;;;;;4.90;1.42;;;32.60;98.50;;;;;;5031957;28;20029;-71
2022/08/25 09:49:15;;;;;;;4.47;1.30;;;32.60;98.80;;;;;;5030377;28;20036;-71
2022/08/25 09:51:42;;;;;;;7.93;1.60;;;32.70;98.50;;;;;;5030242;28;20037;-70
2022/08/25 09:54:19;;;;;;;6.82;1.58;;;32.70;98.40;;;;;;5030046;28;20022;-71
2022/08/25 09:56:52;;;;;;;5.05;1.45;;;32.50;98.10;;;;;;5032028;28;20393;-71
2022/08/25 09:59:28;;;;;;;4.20;1.30;;;32.30;98.40;;;;;;5031465;28;20489;-71
2022/08/25 10:01:57;;;;;;;3.88;1.33;;;32.30;98.60;;;;;;5031434;28;20089;-72
2022/08/25 10:04:32;;;;;;;5.75;1.40;;;32.30;98.40;;;;;;5031361;28;20021;-70
2022/08/25 10:07:01;;;;;;;4.40;1.43;;;32.30;98.70;;;;;;5034499;28;20035;-70
2022/08/25 10:09:33;;;;;;;7.05;1.30;;;32.30;98.70;;;;;;5035303;28;20455;-70
2022/08/25 10:12:03;;;;;;;4.72;1.30;;;32.30;98.10;;;;;;5034830;28;20029;-71
2022/08/25 10:14:40;;;;;;;3.17;1.20;;;32.40;98.00;;;;;;5035047;28;20033;-70
2022/08/25 10:17:26;;;;;;;4.90;1.20;;;32.50;98.10;;;;;;5033854;28;20025;-70
2022/08/25 10:19:54;;;;;;;6.53;1.27;;;32.50;98.00;;;;;;5033413;28;20041;-70
2022/08/25 10:22:23;;;;;;;6.00;1.60;;;32.50;97.70;;;;;;5034840;28;20026;-70
2022/08/25 10:24:49;;;;;;;5.85;1.30;;;32.50;97.70;;;;;;5034871;28;20541;-70
2022/08/25 10:27:38;;;;;;;6.35;1.00;;;32.50;97.50;;;;;;5034750;28;20022;-70
2022/08/25 10:30:16;;;;;;;4.28;1.20;;;32.60;97.60;;;;;;5034820;28;20115;-70
2022/08/25 10:33:19;;;;;;;4.82;1.45;;;32.80;97.70;;;;;;5035311;28;20104;-70
2022/08/25 10:36:05;;;;;;;7.43;1.58;;;32.80;97.10;;;;;;5035145;28;20164;-70
2022/08/25 10:38:48;;;;;;;2.40;1.00;;;32.70;96.80;;;;;;5034875;28;20174;-70
2022/08/25 10:41:30;;;;;;;5.40;1.17;;;32.70;96.80;;;;;;5034453;28;20535;-70
2022/08/25 10:47:17;;;;;;;4.00;1.50;;;32.90;96.70;;;;;;5034386;28;20589;-70
2022/08/25 10:49:55;;;;;;;3.92;1.30;;;32.70;96.60;;;;;;5034665;28;20018;-70
2022/08/25 10:52:37;;;;;;;3.50;1.25;;;32.70;96.30;;;;;;5034225;28;20120;-70
2022/08/25 10:55:39;;;;;;;8.90;1.60;;;32.50;96.30;;;;;;5034447;28;20020;-70
2022/08/25 10:58:23;;;;;;;6.57;1.45;;;32.50;96.20;;;;;;5034423;28;20022;-70
2022/08/25 11:01:02;;;;;;;4.50;1.10;;;32.50;96.40;;;;;;5032942;28;20041;-70
2022/08/25 11:03:45;;;;;;;2.53;1.05;;;32.30;96.30;;;;;;5034562;28;20048;-70
2022/08/25 11:06:34;;;;;;;4.70;1.25;;;32.40;96.20;;;;;;5034380;28;20029;-70
2022/08/25 11:09:04;;;;;;;5.50;1.35;;;32.50;96.20;;;;;;5034841;28;20025;-70
2022/08/25 11:11:39;;;;;;;7.90;1.50;;;32.50;95.80;;;;;;5034771;28;20052;-70
2022/08/25 11:14:13;;;;;;;4.85;1.52;;;32.40;96.50;;;;;;5034384;28;20025;-70
2022/08/25 11:16:50;;;;;;;4.88;1.30;;;32.50;95.90;;;;;;5034368;28;20037;-70
2022/08/25 11:19:30;;;;;;;3.80;1.17;;;32.60;95.70;;;;;;5034248;28;20042;-70
2022/08/25 11:22:06;;;;;;;4.60;1.00;;;32.50;95.90;;;;;;5034312;28;20029;-70
2022/08/25 11:24:37;;;;;;;6.18;1.20;;;32.70;95.90;;;;;;5034551;28;20029;-70
2022/08/25 11:27:08;;;;;;;5.68;1.40;;;32.60;95.60;;;;;;5034447;28;20021;-70
2022/08/25 11:29:37;;;;;;;5.72;1.30;;;32.60;95.40;;;;;;5034645;28;20053;-69
2022/08/25 11:32:04;;;;;;;3.88;1.10;;;32.80;94.80;;;;;;5034076;28;20071;-69
2022/08/25 11:34:32;;;;;;;2.78;0.90;;;32.80;94.50;;;;;;5034763;28;20029;-70
2022/08/25 11:37:26;;;;;;;2.80;1.00;;;32.90;94.80;;;;;;5034057;28;20025;-70
2022/08/25 11:40:09;;;;;;;5.70;1.30;;;32.80;94.80;;;;;;5033277;28;20565;-70
2022/08/25 11:42:57;;;;;;;2.83;0.90;;;32.90;94.60;;;;;;5033842;28;20030;-70
2022/08/25 11:45:51;;;;;;;5.82;1.30;;;33.00;94.20;;;;;;5034490;28;20462;-70
2022/08/25 11:48:27;;;;;;;2.25;0.93;;;32.60;94.90;;;;;;5034402;28;20072;-70
2022/08/25 11:51:01;;;;;;;3.38;1.20;;;32.80;95.00;;;;;;5034048;28;20022;-70
2022/08/25 11:53:42;;;;;;;5.00;1.30;;;32.80;94.80;;;;;;5033717;28;20108;-70
2022/08/25 11:56:33;;;;;;;4.30;1.20;;;32.80;94.80;;;;;;5034114;28;20053;-69
2022/08/25 11:58:59;;;;;;;2.78;1.20;;;33.00;94.70;;;;;;5033483;28;20045;-69
2022/08/25 12:01:44;;;;;;;;;;;33.00;94.40;;;;;;5033824;28;20036;-70
2022/08/25 12:04:37;;;;;;;3.35;1.20;;;33.00;94.70;;;;;;5033173;28;19905;-70
2022/08/25 12:07:05;;;;;;;4.63;1.13;;;32.80;95.40;;;;;;5032907;28;20087;-70
2022/08/25 12:09:50;;;;;;;4.63;1.42;;;32.80;95.20;;;;;;5033378;28;20529;-70
2022/08/25 12:12:28;;;;;;;4.85;1.70;;;32.80;95.20;;;;;;5032799;28;20462;-70
2022/08/25 12:14:54;;;;;;;5.05;1.70;;;32.90;95.90;;;;;;5033308;28;20101;-70
2022/08/25 12:17:36;;;;;;;4.22;1.40;;;32.80;96.10;;;;;;5033115;28;20029;-70
2022/08/25 12:20:03;;;;;;;7.45;1.45;;;32.70;96.70;;;;;;5033265;28;20092;-70
2022/08/25 12:22:32;;;;;;;6.82;1.65;;;32.70;96.60;;;;;;5033227;28;20478;-71
2022/08/25 12:25:30;;;;;;;5.00;1.25;;;32.50;97.60;;;;;;5033101;28;20084;-70
2022/08/25 12:27:59;;;;;;;4.60;1.45;;;32.60;97.00;;;;;;5032819;28;20121;-70
2022/08/25 12:30:44;;;;;;;5.53;1.40;;;32.70;96.90;;;;;;5032694;28;20041;-70
2022/08/25 12:33:24;;;;;;;4.73;1.47;;;32.80;96.40;;;;;;5033116;28;20079;-71
2022/08/25 12:35:54;;;;;;;6.32;1.80;;;33.00;97.70;;;;;;5033084;28;20104;-70
2022/08/25 12:38:46;;;;;;;5.75;1.35;;;33.00;98.30;;;;;;5033487;28;20438;-70
2022/08/25 12:41:14;;;;;;;6.15;2.05;;;32.90;98.40;;;;;;5033668;28;20041;-69
2022/08/25 12:43:47;;;;;;;6.55;1.63;;;32.80;98.80;;;;;;5032782;28;20060;-69
2022/08/25 12:46:19;;;;;;;6.05;1.30;;;32.70;98.40;;;;;;5032979;28;20026;-69
2022/08/25 12:49:14;;;;;;;5.15;1.25;;;32.70;98.10;;;;;;5032669;28;20033;-69
2022/08/25 12:51:52;;;;;;;5.75;1.30;;;32.50;98.60;;;;;;5032239;28;20113;-70
2022/08/25 12:54:37;;;;;;;6.13;1.55;;;32.50;98.40;;;;;;5032545;28;20096;-69
2022/08/25 12:57:20;;;;;;;4.13;1.17;;;32.60;98.90;;;;;;5032606;28;20516;-70
2022/08/25 12:59:51;;;;;;;8.55;1.30;;;32.60;99.10;;;;;;5031585;28;20033;-69
2022/08/25 13:02:35;;;;;;;7.85;1.25;;;32.60;99.70;;;;;;5032580;28;20025;-69
2022/08/25 13:05:15;;;;;;;8.30;1.30;;;32.60;99.60;;;;;;5032675;28;20029;-70
2022/08/25 13:07:56;;;;;;;7.95;1.10;;;32.70;99.60;;;;;;5032399;28;20022;-70
2022/08/25 13:10:53;;;;;;;7.57;1.30;;;32.70;99.50;;;;;;5032524;28;20037;-70
2022/08/25 13:13:51;;;;;;;3.00;1.20;;;32.70;99.60;;;;;;5032510;28;20032;-69
2022/08/25 13:16:23;;;;;;;4.90;1.15;;;32.90;99.50;;;;;;5032241;28;20034;-69
2022/08/25 13:18:49;;;;;;;4.00;1.10;;;32.90;99.20;;;;;;5032486;28;20063;-69
2022/08/25 13:21:27;;;;;;;3.78;1.17;;;32.80;98.90;;;;;;5033069;28;20159;-70